Flight Track Log - Related Links

Times and Time Zones

All times are in EDT time to prevent confusion due to time zone crossing. See the UAL395 flight status page for this flight to view local times or setup timezone preferences in your user account.

Time Position Orientation Groundspeed Altitude Reporting Facility
EDT Latitude Longitude Course Direction KTS MPH feet Rate Location/Type
Thu 07:28:22 PM 51.1000 -114.0667 166° South 140 161 4,000  Level Edmonton Center
Thu 07:29:22 PM 51.1167 -114.1167 298° West 140 161 6,200 1,500 Climbing Edmonton Center
Thu 07:30:22 PM 51.1333 -114.1833 292° West 180 207 7,000 1,100 Climbing Edmonton Center
Thu 07:31:22 PM 51.1167 -114.2500 248° West 270 311 8,400 1,950 Climbing Edmonton Center
Thu 07:32:22 PM 51.0333 -114.2333 173° South 320 368 10,900 1,850 Climbing Edmonton Center
Thu 07:33:00 PM 50.5543 -113.7684 166° South  Level FlightAware Approximate
Thu 07:33:22 PM 50.9333 -114.2167 174° South 370 426 12,100  Level Edmonton Center
Thu 07:34:22 PM 50.8167 -114.1667 165° South 410 472 14,000 1,950 Climbing Edmonton Center
Thu 07:35:22 PM 50.7167 -114.1167 162° South 420 483 16,000 1,850 Climbing Edmonton Center
Thu 07:36:22 PM 50.5833 -114.0667 167° South 440 506 17,700 1,800 Climbing Edmonton Center
Thu 07:37:22 PM 50.4667 -114.0333 170° South 440 506 19,600 1,800 Climbing Edmonton Center
Thu 07:38:22 PM 50.3500 -113.9833 165° South 460 529 21,300 1,750 Climbing Edmonton Center
Thu 07:39:22 PM 50.2333 -113.9167 160° South 460 529 23,100 1,500 Climbing Edmonton Center
Thu 07:40:22 PM 50.1167 -113.8167 151° Southeast 470 541 24,300 1,150 Climbing Edmonton Center
Thu 07:41:22 PM 50.0000 -113.7000 147° Southeast 480 552 25,400 1,100 Climbing Edmonton Center
Thu 07:42:22 PM 49.8833 -113.6000 151° Southeast 490 564 26,500 1,050 Climbing Edmonton Center
Thu 07:43:22 PM 49.7500 -113.4833 151° Southeast 500 575 27,500 950 Climbing Edmonton Center
Thu 07:44:22 PM 49.6500 -113.3833 147° Southeast 510 587 28,400 1,050 Climbing Edmonton Center
Thu 07:45:22 PM 49.5167 -113.2500 147° Southeast 500 575 29,600 1,150 Climbing Edmonton Center
Thu 07:46:22 PM 49.4000 -113.1500 151° Southeast 510 587 30,700 1,250 Climbing Edmonton Center
Thu 07:47:22 PM 49.2833 -113.0333 147° Southeast 500 575 32,100 1,200 Climbing Edmonton Center
Thu 07:48:22 PM 49.1500 -112.9333 154° Southeast 490 564 33,100 1,000 Climbing Edmonton Center
Thu 07:49:22 PM 49.0500 -112.8333 147° Southeast 490 564 34,100 850 Climbing Edmonton Center
Thu 07:50:22 PM 48.9167 -112.7000 147° Southeast 490 564 34,800 435 Climbing Edmonton Center
Thu 07:51:26 PM 48.8511 -112.5975 134° Southeast 494 568 35,000 95 Climbing Salt Lake Center
Thu 07:52:28 PM 48.7228 -112.4828 149° Southeast 493 567 35,000  Level Salt Lake Center
Thu 07:53:30 PM 48.6050 -112.3797 150° Southeast 491 565 35,000 -48 Level Salt Lake Center
Thu 07:54:32 PM 48.4639 -112.2544 150° Southeast 492 566 34,900  Descending Salt Lake Center
Thu 07:55:34 PM 48.3453 -112.1514 150° Southeast 493 567 35,000  Climbing Salt Lake Center
Thu 07:56:36 PM 48.2286 -112.0486 150° Southeast 490 564 34,900  Descending Salt Lake Center
Thu 07:57:38 PM 48.1108 -111.9461 150° Southeast 491 565 35,000 48 Climbing Salt Lake Center
Thu 07:58:40 PM 47.9919 -111.8447 150° Southeast 493 567 35,000  Level Salt Lake Center
Thu 07:59:42 PM 47.8756 -111.7442 150° Southeast 490 564 35,000 -49 Level Salt Lake Center
Thu 08:00:43 PM 47.7347 -111.6244 150° Southeast 489 563 34,900 -49 Descending Salt Lake Center
Thu 08:01:45 PM 47.6192 -111.5264 150° Southeast 488 562 34,900  Level Salt Lake Center
Thu 08:02:47 PM 47.5042 -111.4292 150° Southeast 490 564 34,900 48 Level Salt Lake Center
Thu 08:03:49 PM 47.3883 -111.3308 150° Southeast 490 564 35,000 48 Climbing Salt Lake Center
Thu 08:04:51 PM 47.2700 -111.2322 151° Southeast 493 567 35,000 -48 Level Salt Lake Center
Thu 08:05:53 PM 47.1303 -111.1158 150° Southeast 485 558 34,900 -48 Descending Salt Lake Center
Thu 08:06:55 PM 47.0111 -111.0175 151° Southeast 493 567 34,900 49 Level Salt Lake Center
Thu 08:07:56 PM 46.8928 -110.9197 151° Southeast 491 565 35,000 49 Climbing Salt Lake Center
Thu 08:08:58 PM 46.7731 -110.8228 151° Southeast 492 566 35,000  Level Salt Lake Center
Thu 08:10:00 PM 46.6519 -110.7242 151° Southeast 499 574 35,000 -48 Level Salt Lake Center
Thu 08:11:02 PM 46.5319 -110.6267 151° Southeast 497 572 34,900  Descending Salt Lake Center
Thu 08:12:04 PM 46.3944 -110.5219 152° Southeast 491 565 35,000 48 Climbing Salt Lake Center
Thu 08:13:06 PM 46.2597 -110.4111 150° Southeast 499 574 35,000  Level Salt Lake Center
Thu 08:14:08 PM 46.1444 -110.3186 151° Southeast 496 571 35,000  Level Salt Lake Center
Thu 08:15:09 PM 46.0081 -110.2122 152° Southeast 497 572 35,000  Level Salt Lake Center
Thu 08:16:11 PM 45.8917 -110.1206 151° Southeast 499 574 35,000  Level Salt Lake Center
Thu 08:17:13 PM 45.7761 -110.0286 151° Southeast 499 574 35,000  Level Salt Lake Center
Thu 08:18:15 PM 45.6406 -109.9231 151° Southeast 496 571 35,000  Level Salt Lake Center
Thu 08:19:17 PM 45.5247 -109.8344 152° Southeast 495 570 35,000  Level Salt Lake Center
Thu 08:20:19 PM 45.3906 -109.7289 151° Southeast 494 568 35,000  Level Salt Lake Center
Thu 08:21:20 PM 45.2750 -109.6417 152° Southeast 493 567 35,000  Level Salt Lake Center
Thu 08:22:22 PM 45.1397 -109.5383 152° Southeast 493 567 35,000  Level Salt Lake Center
Thu 08:23:24 PM 45.0261 -109.4514 152° Southeast 486 559 35,000  Level Salt Lake Center
Thu 08:24:26 PM 44.8925 -109.3506 152° Southeast 489 563 35,000  Level Salt Lake Center
Thu 08:25:28 PM 44.7775 -109.2647 152° Southeast 489 563 35,000  Level Salt Lake Center
Thu 08:26:30 PM 44.6444 -109.1650 152° Southeast 486 559 35,000  Level Salt Lake Center
Thu 08:27:31 PM 44.5311 -109.0811 152° Southeast 485 558 35,000  Level Salt Lake Center
Thu 08:28:33 PM 44.4194 -108.9975 152° Southeast 481 554 35,000 -6,194 Level Salt Lake Center
Thu 08:29:35 PM 44.2875 -108.9006 152° Southeast 480 552 22,200  Descending Salt Lake Center
Thu 08:31:39 PM 44.0433 -108.7217 152° Southeast 480 552 35,000 4,151 Climbing Salt Lake Center
Thu 08:32:40 PM 43.9300 -108.6389 152° Southeast 483 556 35,000  Level Salt Lake Center
Thu 08:33:42 PM 43.8011 -108.5442 152° Southeast 471 542 35,000  Level Salt Lake Center
Thu 08:34:44 PM 43.6911 -108.4658 153° Southeast 467 537 35,000 -48 Level Salt Lake Center
Thu 08:35:46 PM 43.5622 -108.3736 153° Southeast 468 539 34,900  Descending Salt Lake Center
Thu 08:36:48 PM 43.4531 -108.2878 150° Southeast 473 544 35,000 97 Climbing Salt Lake Center
Thu 08:37:50 PM 43.3392 -108.1556 140° Southeast 480 552 35,100  Climbing Salt Lake Center
Thu 08:38:51 PM 43.2428 -108.0422 139° Southeast 479 551 35,000 -49 Descending Salt Lake Center
Thu 08:39:53 PM 43.1308 -107.9097 139° Southeast 478 550 35,000  Level Salt Lake Center
Thu 08:40:55 PM 43.0347 -107.7989 140° Southeast 473 544 35,000  Level Salt Lake Center
Thu 08:41:57 PM 42.9361 -107.6819 139° Southeast 474 545 35,000  Level Salt Lake Center
Thu 08:42:58 PM 42.8219 -107.5492 140° Southeast 482 555 35,000  Level Salt Lake Center
Thu 08:44:00 PM 42.7236 -107.4364 140° Southeast 483 556 35,000  Level Salt Lake Center
Thu 08:45:02 PM 42.6244 -107.3228 140° Southeast 485 558 35,000  Level Salt Lake Center
Thu 08:46:04 PM 42.5094 -107.1908 140° Southeast 485 558 35,000  Level Salt Lake Center
Thu 08:47:05 PM 42.4106 -107.0800 140° Southeast 483 556 35,000  Level Salt Lake Center
Thu 08:48:07 PM 42.2944 -106.9483 140° Southeast 485 558 35,000  Level Salt Lake Center
Thu 08:49:09 PM 42.1953 -106.8378 140° Southeast 484 557 35,000  Level Salt Lake Center
Thu 08:50:21 PM 42.0625 -106.6889 140° Southeast 486 559 35,000  Level Denver Center
Thu 08:51:23 PM 41.9639 -106.5781 140° Southeast 484 557 35,000  Level Denver Center
Thu 08:52:24 PM 41.8511 -106.4539 141° Southeast 479 551 35,000  Level Denver Center
Thu 08:53:26 PM 41.7531 -106.3456 140° Southeast 477 549 35,000  Level Denver Center
Thu 08:54:28 PM 41.6389 -106.2192 140° Southeast 478 550 35,000  Level Denver Center
Thu 08:55:29 PM 41.5403 -106.1119 141° Southeast 478 550 35,000  Level Denver Center
Thu 08:56:31 PM 41.4433 -106.0061 141° Southeast 473 544 35,000  Level Denver Center
Thu 08:57:33 PM 41.3303 -105.8825 141° Southeast 471 542 35,000  Level Denver Center
Thu 08:58:34 PM 41.2319 -105.7775 141° Southeast 473 544 35,000  Level Denver Center
Thu 08:59:36 PM 41.1169 -105.6531 141° Southeast 477 549 35,000  Level Denver Center
Thu 09:00:38 PM 41.0094 -105.5361 141° Southeast 476 548 35,000  Level Denver Center
Thu 09:01:39 PM 40.9058 -105.4275 142° Southeast 470 541 35,000  Level Denver Center
Thu 09:02:41 PM 40.8033 -105.3197 141° Southeast 468 539 35,000  Level Denver Center
Thu 09:03:43 PM 40.7006 -105.2081 141° Southeast 472 543 35,000  Level Denver Center
Thu 09:04:44 PM 40.5978 -105.1006 142° Southeast 467 537 35,000  Level Denver Center
Thu 09:05:46 PM 40.4931 -104.9897 141° Southeast 472 543 35,000  Level Denver Center
Thu 09:06:48 PM 40.3883 -104.8808 142° Southeast 475 547 35,000 48 Level Denver Center
Thu 09:07:50 PM 40.2828 -104.7711 142° Southeast 479 551 35,100  Climbing Denver Center
Thu 09:08:51 PM 40.1783 -104.6633 142° Southeast 472 543 35,000 -49 Descending Denver Center
Thu 09:09:53 PM 40.0731 -104.5544 142° Southeast 476 548 35,000  Level Denver Center
Thu 09:10:55 PM 39.9533 -104.4306 142° Southeast 464 534 35,000  Level Denver Center
Thu 09:11:57 PM 39.8497 -104.3258 142° Southeast 463 533 35,000 290 Level Denver Center
Thu 09:12:59 PM 39.7458 -104.2189 142° Southeast 466 536 35,600 683 Climbing Denver Center
Thu 09:14:00 PM 39.6406 -104.1114 142° Southeast 471 542 36,400 683 Climbing Denver Center
Thu 09:15:02 PM 39.5369 -104.0081 142° Southeast 463 533 37,000 290 Climbing Denver Center
Thu 09:16:04 PM 39.4303 -103.9003 142° Southeast 473 544 37,000  Level Denver Center
Thu 09:17:06 PM 39.3281 -103.7981 142° Southeast 456 525 37,000  Level Denver Center
Thu 09:18:08 PM 39.2222 -103.6925 142° Southeast 472 543 37,000  Level Denver Center
Thu 09:19:10 PM 39.1167 -103.5872 142° Southeast 475 547 37,000  Level Denver Center
Thu 09:20:12 PM 39.0142 -103.4850 142° Southeast 461 531 37,000  Level Denver Center
Thu 09:21:14 PM 38.9108 -103.3836 143° Southeast 462 532 37,000  Level Denver Center
Thu 09:22:16 PM 38.7911 -103.2658 143° Southeast 460 529 37,000  Level Denver Center
Thu 09:23:17 PM 38.6886 -103.1647 142° Southeast 459 528 37,000  Level Denver Center
Thu 09:24:19 PM 38.5933 -103.0472 136° Southeast 476 548 37,000  Level Denver Center
Thu 09:25:21 PM 38.5181 -102.9017 123° Southeast 497 572 37,000  Level Denver Center
Thu 09:26:23 PM 38.4322 -102.7417 124° Southeast 491 565 37,000  Level Denver Center
Thu 09:27:25 PM 38.3592 -102.6036 124° Southeast 491 565 37,000  Level Denver Center
Thu 09:28:27 PM 38.2650 -102.4500 128° Southeast 491 565 37,000  Level Denver Center
Thu 09:29:29 PM 38.1714 -102.3361 136° Southeast 487 560 37,000  Level Denver Center
Thu 09:30:31 PM 38.0589 -102.2094 138° Southeast 487 560 37,000  Level Denver Center
Thu 09:31:33 PM 37.9539 -102.1217 147° Southeast 476 548 37,000  Level Denver Center
Thu 09:32:35 PM 37.8533 -102.0336 145° Southeast 463 533 37,000  Level Denver Center
Thu 09:33:37 PM 37.7356 -101.9356 147° Southeast 455 524 37,000  Level Denver Center
Thu 09:34:39 PM 37.6350 -101.8503 146° Southeast 456 525 37,000  Level Denver Center
Thu 09:35:03 PM 37.5822 -101.8056 146° Southeast 463 533 37,000  Level Kansas City Center
Thu 09:36:03 PM 37.4789 -101.7197 147° Southeast 467 537 37,000  Level Kansas City Center
Thu 09:37:06 PM 37.3583 -101.6172 146° Southeast 470 541 37,000  Level Kansas City Center
Thu 09:38:07 PM 37.2533 -101.5297 146° Southeast 473 544 37,000 48 Level Kansas City Center
Thu 09:39:10 PM 37.1300 -101.4264 146° Southeast 478 550 37,100  Climbing Kansas City Center
Thu 09:40:10 PM 37.0253 -101.3403 147° Southeast 474 545 37,000 -49 Descending Kansas City Center
Thu 09:41:12 PM 36.9039 -101.2386 146° Southeast 473 544 37,000  Level Kansas City Center
Thu 09:42:15 PM 36.8000 -101.1528 147° Southeast 471 542 37,000  Level Kansas City Center
Thu 09:43:16 PM 36.6961 -101.0678 147° Southeast 469 540 37,000  Level Kansas City Center
Thu 09:44:16 PM 36.5756 -100.9678 146° Southeast 467 537 37,000  Level Kansas City Center
Thu 09:45:17 PM 36.4711 -100.8836 147° Southeast 468 539 37,000  Level Kansas City Center
Thu 09:46:21 PM 36.3483 -100.7858 147° Southeast 469 540 37,000  Level Kansas City Center
Thu 09:47:32 PM 36.2242 -100.6822 146° Southeast 470 541 37,000  Level Albuquerque Center
Thu 09:48:33 PM 36.1142 -100.5947 147° Southeast 470 541 37,000  Level Albuquerque Center
Thu 09:50:26 PM 35.9069 -100.4289 147° Southeast 472 543 37,000  Level Kansas City Center
Thu 09:51:27 PM 35.7822 -100.3281 147° Southeast 475 547 37,000  Level Kansas City Center
Thu 09:52:28 PM 35.6717 -100.2406 147° Southeast 474 545 37,000  Level Kansas City Center
Thu 09:53:32 PM 35.5633 -100.1544 147° Southeast 469 540 37,000  Level Kansas City Center
Thu 09:54:42 PM 35.4325 -100.0497 147° Southeast 470 541 37,000  Level Albuquerque Center
Thu 09:55:43 PM 35.3217 -99.9644 148° Southeast 470 541 37,000  Level Albuquerque Center
Thu 09:56:44 PM 35.2100 -99.8767 147° Southeast 474 545 37,000  Level Albuquerque Center
Thu 09:57:46 PM 35.0981 -99.7892 147° Southeast 477 549 37,000  Level Albuquerque Center
Thu 09:58:47 PM 34.9869 -99.7019 147° Southeast 476 548 37,000  Level Albuquerque Center
Thu 09:59:49 PM 34.8767 -99.6172 148° Southeast 471 542 37,000  Level Albuquerque Center
Thu 10:00:50 PM 34.7436 -99.5128 147° Southeast 472 543 37,000  Level Albuquerque Center
Thu 10:01:42 PM 34.6450 -99.4403 149° Southeast 475 547 37,000  Level Fort Worth Center
Thu 10:02:42 PM 34.5339 -99.3544 148° Southeast 475 547 37,000  Level Fort Worth Center
Thu 10:03:42 PM 34.4244 -99.2689 147° Southeast 475 547 37,000  Level Fort Worth Center
Thu 10:04:42 PM 34.3256 -99.1889 146° Southeast 475 547 37,000  Level Fort Worth Center
Thu 10:05:42 PM 34.2036 -99.0986 149° Southeast 476 548 37,000  Level Fort Worth Center
Thu 10:06:42 PM 34.1025 -99.0264 149° Southeast 476 548 37,000  Level Fort Worth Center
Thu 10:07:42 PM 33.9889 -98.9339 146° Southeast 476 548 37,000  Level Fort Worth Center
Thu 10:08:42 PM 33.8792 -98.8519 148° Southeast 476 548 37,000  Level Fort Worth Center
Thu 10:09:42 PM 33.7550 -98.7600 148° Southeast 474 545 37,000  Level Fort Worth Center
Thu 10:10:42 PM 33.6411 -98.6783 149° Southeast 469 540 37,000  Level Fort Worth Center
Thu 10:11:42 PM 33.5394 -98.5972 146° Southeast 474 545 37,000  Level Fort Worth Center
Thu 10:12:42 PM 33.4275 -98.5136 148° Southeast 474 545 37,000  Level Fort Worth Center
Thu 10:13:42 PM 33.3011 -98.4225 149° Southeast 479 551 37,000  Level Fort Worth Center
Thu 10:14:42 PM 33.2014 -98.3494 148° Southeast 479 551 37,000  Level Fort Worth Center
Thu 10:15:42 PM 33.0853 -98.2614 148° Southeast 474 545 37,000  Level Fort Worth Center
Thu 10:16:42 PM 32.9708 -98.1811 150° Southeast 480 552 37,000  Level Fort Worth Center
Thu 10:17:42 PM 32.8567 -98.0961 148° Southeast 490 564 37,000  Level Fort Worth Center
Thu 10:18:42 PM 32.7442 -98.0086 147° Southeast 490 564 37,000  Level Fort Worth Center
Thu 10:19:42 PM 32.6444 -97.8994 137° Southeast 490 564 37,000  Level Fort Worth Center
Thu 10:20:42 PM 32.5447 -97.7756 134° Southeast 500 575 37,000  Level Fort Worth Center
Thu 10:21:42 PM 32.4489 -97.6572 134° Southeast 506 582 37,000  Level Fort Worth Center
Thu 10:22:42 PM 32.3428 -97.5242 133° Southeast 506 582 37,000 -200 Level Fort Worth Center
Thu 10:23:42 PM 32.2467 -97.4036 133° Southeast 501 577 36,600 -650 Descending Fort Worth Center
Thu 10:24:42 PM 32.1506 -97.2883 135° Southeast 501 577 35,700 -800 Descending Fort Worth Center
Thu 10:25:42 PM 32.0544 -97.1708 134° Southeast 493 567 35,000 -350 Descending Fort Worth Center
Thu 10:26:42 PM 31.9750 -97.0681 132° Southeast 504 580 35,000  Level Fort Worth Center
Thu 10:27:42 PM 31.8722 -96.9411 134° Southeast 499 574 35,000 -400 Level Fort Worth Center
Thu 10:28:42 PM 31.7756 -96.8219 134° Southeast 499 574 34,200 -1,709 Descending Fort Worth Center
Thu 10:30:27 PM 31.6086 -96.6183 134° Southeast 508 585 30,300 -1,880 Descending Houston Center
Thu 10:31:28 PM 31.4994 -96.5197 142° Southeast 493 567 29,000 -639 Descending Houston Center
Thu 10:32:29 PM 31.3786 -96.4425 151° Southeast 487 560 29,000 -836 Level Houston Center
Thu 10:33:30 PM 31.2594 -96.3678 152° Southeast 483 556 27,300 -2,164 Descending Houston Center
Thu 10:34:31 PM 31.1417 -96.2928 151° Southeast 475 547 24,600 -2,656 Descending Houston Center
Thu 10:35:32 PM 31.0244 -96.2197 152° Southeast 471 542 21,900 -2,705 Descending Houston Center
Thu 10:36:33 PM 30.9114 -96.1478 151° Southeast 462 532 19,100 -2,585 Descending Houston Center
Thu 10:37:35 PM 30.8008 -96.0794 152° Southeast 447 514 16,600 -2,585 Descending Houston Center
Thu 10:38:36 PM 30.6889 -96.0103 152° Southeast 412 474 13,800 -2,410 Descending Houston Center
Thu 10:39:37 PM 30.6092 -95.9597 151° Southeast 376 433 11,700 -2,000 Descending Houston Center
Thu 10:39:57 PM 30.5619 -95.9303 152° Southeast 363 418 11,100 -984 Descending Houston Center
Thu 10:40:38 PM 30.5258 -95.9072 151° Southeast 343 395 10,700 -885 Descending Houston Center
Thu 10:40:58 PM 30.4886 -95.8856 153° Southeast 285 328 10,200 -689 Descending Houston Center
Thu 10:41:39 PM 30.4417 -95.8542 150° Southeast 290 334 10,000 -197 Descending Houston Center
Thu 10:41:59 PM 30.4231 -95.8303 132° Southeast 293 337 10,000  Level Houston Center
Thu 10:42:40 PM 30.3819 -95.7894 139° Southeast 291 335 10,000 -393 Level Houston Center
Thu 10:43:00 PM 30.3519 -95.7853 173° South 282 325 9,600 -984 Descending Houston Center
Thu 10:43:41 PM 30.3028 -95.7783 173° South 288 331 9,000 -909 Descending Houston Center
Thu 10:44:06 PM 30.2628 -95.7739 175° South 287 330 8,600 -885 Descending Houston Center
Thu 10:44:42 PM 30.2253 -95.7600 162° South 284 327 8,100 -1,082 Descending Houston Center
Thu 10:45:07 PM 30.1925 -95.7386 151° Southeast 276 318 7,500 -1,279 Descending Houston Center
Thu 10:45:43 PM 30.1611 -95.7167 149° Southeast 271 312 6,800 -1,377 Descending Houston Center
Thu 10:46:08 PM 30.1278 -95.6953 151° Southeast 265 305 6,100 -1,377 Descending Houston Center
Thu 10:46:44 PM 30.1022 -95.6631 133° Southeast 275 316 5,400 -1,475 Descending Houston Center
Thu 10:47:09 PM 30.0764 -95.6364 138° Southeast 264 304 4,600 -1,475 Descending Houston Center
Thu 10:47:45 PM 30.0506 -95.6033 132° Southeast 267 307 3,900 -1,279 Descending Houston Center
Thu 10:48:10 PM 30.0267 -95.5744 134° Southeast 258 297 3,300 -1,440 Descending Houston Center

Login

Don't have an account? Register now (free) for customized features, flight alerts, and more!